createdAt,value
2018-06-15T00:01:12.544Z,66.23
2018-06-15T00:03:14.576Z,49.60
2018-06-15T00:05:16.620Z,51.40
2018-06-15T00:07:18.665Z,60.87
2018-06-15T00:09:20.685Z,68.67
2018-06-15T00:11:22.729Z,59.23
2018-06-15T00:13:24.760Z,57.33
2018-06-15T00:15:26.814Z,59.23
2018-06-15T00:17:28.832Z,63.00
2018-06-15T00:19:30.867Z,58.63
2018-06-15T00:21:32.891Z,60.27
2018-06-15T00:23:34.917Z,65.53
2018-06-15T00:25:36.936Z,62.93
2018-06-15T00:27:38.965Z,65.70
2018-06-15T00:29:41.003Z,72.20
2018-06-15T00:31:43.060Z,47.10
2018-06-15T00:33:45.083Z,57.57
2018-06-15T00:35:47.144Z,56.43
2018-06-15T00:37:49.183Z,62.93
2018-06-15T00:39:51.232Z,63.03
2018-06-15T00:41:53.260Z,56.77
2018-06-15T00:43:55.307Z,64.57
2018-06-15T00:45:57.332Z,72.07
2018-06-15T00:47:59.340Z,76.33
2018-06-15T00:50:01.375Z,69.40
2018-06-15T00:52:03.401Z,63.77
2018-06-15T00:54:05.527Z,65.80
2018-06-15T00:56:07.599Z,61.80
2018-06-15T00:58:09.621Z,64.80
2018-06-15T01:00:11.661Z,67.80
2018-06-15T01:02:13.724Z,63.10
2018-06-15T01:04:15.743Z,64.27
2018-06-15T01:06:17.779Z,78.50
2018-06-15T01:08:19.824Z,79.73
2018-06-15T01:10:21.849Z,80.07
2018-06-15T01:12:23.876Z,79.80
2018-06-15T01:14:25.917Z,73.60
2018-06-15T01:16:27.963Z,64.70
2018-06-15T01:18:30.000Z,68.23
2018-06-15T01:20:32.122Z,68.43
2018-06-15T01:22:34.126Z,70.40
2018-06-15T01:24:36.148Z,59.07
2018-06-15T01:26:38.164Z,70.57
2018-06-15T01:28:40.197Z,70.80
2018-06-15T01:30:42.224Z,67.60
2018-06-15T01:32:44.256Z,69.90
2018-06-15T01:34:46.303Z,64.40
2018-06-15T01:36:48.340Z,67.77
2018-06-15T01:38:50.351Z,69.60
2018-06-15T01:40:52.394Z,64.20
2018-06-15T01:42:54.419Z,61.90
2018-06-15T01:44:56.456Z,72.40
2018-06-15T01:46:58.496Z,59.70
2018-06-15T01:49:00.516Z,67.03
2018-06-15T01:51:02.552Z,60.33
2018-06-15T01:53:04.580Z,64.37
2018-06-15T01:55:06.716Z,60.60
2018-06-15T01:57:08.820Z,59.17
2018-06-15T01:59:11.319Z,62.23
2018-06-15T02:01:14.062Z,63.20
2018-06-15T02:03:16.822Z,65.37
2018-06-15T02:05:19.375Z,68.67
2018-06-15T02:07:21.416Z,62.37
2018-06-15T02:09:23.459Z,65.87
2018-06-15T02:11:26.194Z,66.57
2018-06-15T02:13:28.232Z,59.00
2018-06-15T02:15:30.264Z,64.93
2018-06-15T02:17:32.304Z,67.27
2018-06-15T02:19:34.348Z,65.87
2018-06-15T02:21:36.390Z,65.40
2018-06-15T02:23:38.440Z,57.70
2018-06-15T02:25:40.488Z,65.33
2018-06-15T02:27:42.529Z,67.00
2018-06-15T02:29:44.587Z,70.28
2018-06-15T02:31:46.684Z,78.97
2018-06-15T02:33:48.733Z,73.80
2018-06-15T02:35:50.769Z,62.40
2018-06-15T02:37:52.815Z,67.10
2018-06-15T02:39:54.862Z,74.23
2018-06-15T02:41:56.901Z,76.57
2018-06-15T02:43:58.940Z,76.87
2018-06-15T02:46:01.011Z,79.57
2018-06-15T02:48:03.043Z,74.17
2018-06-15T02:50:05.163Z,78.60
2018-06-15T02:52:07.236Z,81.13
2018-06-15T02:54:09.276Z,79.80
2018-06-15T02:56:11.347Z,75.23
2018-06-15T02:58:13.370Z,86.63
2018-06-15T03:00:15.407Z,74.10
2018-06-15T03:02:17.448Z,77.23
2018-06-15T03:04:19.481Z,68.37
2018-06-15T03:06:21.633Z,74.53
2018-06-15T03:08:23.653Z,72.80
2018-06-15T03:10:25.709Z,71.73
2018-06-15T03:12:27.730Z,73.23
2018-06-15T03:14:29.780Z,74.37
2018-06-15T03:16:31.840Z,74.67
2018-06-15T03:18:33.883Z,80.77
2018-06-15T03:20:35.928Z,75.75
2018-06-15T03:22:37.967Z,75.47
2018-06-15T03:24:40.010Z,68.53
2018-06-15T03:26:42.052Z,84.73
2018-06-15T03:28:44.122Z,77.57
2018-06-15T03:30:46.180Z,86.70
2018-06-15T03:32:48.233Z,75.60
2018-06-15T03:34:50.309Z,73.57
2018-06-15T03:36:52.357Z,73.87
2018-06-15T03:38:54.400Z,92.27
2018-06-15T03:40:56.438Z,74.97
2018-06-15T03:42:58.478Z,81.27
2018-06-15T03:45:00.509Z,88.93
2018-06-15T03:47:02.562Z,116.40
2018-06-15T03:49:04.694Z,85.40
2018-06-15T03:51:06.729Z,77.13
2018-06-15T03:53:08.785Z,84.80
2018-06-15T03:55:10.958Z,70.00
2018-06-15T03:57:13.005Z,92.93
2018-06-15T03:59:15.052Z,69.53
2018-06-15T04:01:17.140Z,99.17
2018-06-15T04:03:19.169Z,84.83
2018-06-15T04:05:21.205Z,93.50
2018-06-15T04:07:23.271Z,95.33
2018-06-15T04:09:25.320Z,84.30
2018-06-15T04:11:27.361Z,81.73
2018-06-15T04:13:29.396Z,74.43
2018-06-15T04:15:31.457Z,84.80
2018-06-15T04:17:33.530Z,84.73
2018-06-15T04:19:35.562Z,94.37
2018-06-15T04:21:37.605Z,95.00
2018-06-15T04:23:39.628Z,109.37
2018-06-15T04:25:41.642Z,93.53
2018-06-15T04:27:43.706Z,86.77
2018-06-15T04:29:45.822Z,95.03
2018-06-15T04:31:48.712Z,101.00
2018-06-15T04:33:50.765Z,97.40
2018-06-15T04:35:52.782Z,98.90
2018-06-15T04:37:54.821Z,79.67
2018-06-15T04:39:56.867Z,98.77
2018-06-15T04:41:58.884Z,89.00
2018-06-15T04:44:00.941Z,73.03
2018-06-15T04:46:02.973Z,91.37
2018-06-15T04:48:05.013Z,77.20
2018-06-15T04:50:07.518Z,87.30
2018-06-15T04:52:09.552Z,72.83
2018-06-15T04:54:11.617Z,80.87
2018-06-15T04:56:13.692Z,86.83
2018-06-15T04:58:15.713Z,82.30
2018-06-15T05:00:17.753Z,78.87
2018-06-15T05:02:19.816Z,81.77
2018-06-15T05:04:21.888Z,73.73
2018-06-15T05:06:23.956Z,80.50
2018-06-15T05:08:26.005Z,80.10
2018-06-15T05:10:28.061Z,74.60
2018-06-15T05:12:30.130Z,74.03
2018-06-15T05:14:32.190Z,76.57
2018-06-15T05:16:34.258Z,70.60
2018-06-15T05:18:36.314Z,79.10
2018-06-15T05:20:38.359Z,66.00
2018-06-15T05:22:40.420Z,69.83
2018-06-15T05:24:42.465Z,69.50
2018-06-15T05:26:44.537Z,71.97
2018-06-15T05:28:46.616Z,76.23
2018-06-15T05:30:48.656Z,69.20
2018-06-15T05:32:50.705Z,71.07
2018-06-15T05:34:52.778Z,89.10
2018-06-15T05:36:54.832Z,73.97
2018-06-15T05:38:56.893Z,75.60
2018-06-15T05:40:58.933Z,81.60
2018-06-15T05:43:00.972Z,78.37
2018-06-15T05:45:03.256Z,74.80
2018-06-15T05:47:05.315Z,77.43
2018-06-15T05:49:07.377Z,76.87
2018-06-15T05:51:09.446Z,89.03
2018-06-15T05:53:11.494Z,78.95
2018-06-15T05:55:13.527Z,78.10
2018-06-15T05:57:15.624Z,70.80
2018-06-15T05:59:17.648Z,72.87
2018-06-15T06:01:19.725Z,83.73
2018-06-15T06:03:21.766Z,73.23
2018-06-15T06:05:23.809Z,69.33
2018-06-15T06:07:25.837Z,86.70
2018-06-15T06:09:27.890Z,75.33
2018-06-15T06:11:29.958Z,71.30
2018-06-15T06:13:32.000Z,81.37
2018-06-15T06:15:34.051Z,81.83
2018-06-15T06:17:36.117Z,67.27
2018-06-15T06:19:38.170Z,60.03
2018-06-15T06:21:40.228Z,70.87
2018-06-15T06:23:42.304Z,64.17
2018-06-15T06:25:44.348Z,67.07
2018-06-15T06:27:46.385Z,61.83
2018-06-15T06:29:48.430Z,53.87
2018-06-15T06:31:50.476Z,58.00
2018-06-15T06:33:53.008Z,51.90
2018-06-15T06:35:55.070Z,58.47
2018-06-15T06:37:57.115Z,54.07
2018-06-15T06:39:59.145Z,50.20
2018-06-15T06:42:01.189Z,47.30
2018-06-15T06:44:03.204Z,50.37
2018-06-15T06:46:05.261Z,48.13
2018-06-15T06:48:07.398Z,47.50
2018-06-15T06:50:09.445Z,47.23
2018-06-15T06:52:11.513Z,51.10
2018-06-15T06:54:13.693Z,50.97
2018-06-15T06:56:15.733Z,42.50
2018-06-15T06:58:17.777Z,58.63
2018-06-15T07:00:19.851Z,50.37
2018-06-15T07:02:21.912Z,43.83
2018-06-15T07:04:23.944Z,48.37
2018-06-15T07:06:25.995Z,50.23
2018-06-15T07:08:28.087Z,48.03
2018-06-15T07:10:30.163Z,50.83
2018-06-15T07:12:32.210Z,51.57
2018-06-15T07:14:34.241Z,48.03
2018-06-15T07:16:36.277Z,45.30
2018-06-15T07:18:38.313Z,48.87
2018-06-15T07:20:40.378Z,43.60
2018-06-15T07:22:42.429Z,44.43
2018-06-15T07:24:44.485Z,45.50
2018-06-15T07:26:46.532Z,40.27
2018-06-15T07:28:48.572Z,38.83
2018-06-15T07:30:50.628Z,36.90
2018-06-15T07:32:52.674Z,41.40
2018-06-15T07:34:54.712Z,37.48
2018-06-15T07:36:56.740Z,36.60
2018-06-15T07:38:58.778Z,35.20
2018-06-15T07:41:00.812Z,30.50
2018-06-15T07:43:02.836Z,34.30
2018-06-15T07:45:04.881Z,30.60
2018-06-15T07:47:06.938Z,33.07
2018-06-15T07:49:08.977Z,30.53
2018-06-15T07:51:11.069Z,39.77
2018-06-15T07:53:13.093Z,36.87
2018-06-15T07:55:15.139Z,36.50
2018-06-15T07:57:17.204Z,30.50
2018-06-15T07:59:19.405Z,32.30
2018-06-15T08:01:21.533Z,30.83
2018-06-15T08:03:23.684Z,36.20
2018-06-15T08:05:25.721Z,27.10
2018-06-15T08:07:27.782Z,31.27
2018-06-15T08:09:29.894Z,26.03
2018-06-15T08:11:32.010Z,26.00
2018-06-15T08:13:34.063Z,28.60
2018-06-15T08:15:36.102Z,25.77
2018-06-15T08:17:38.129Z,26.77
2018-06-15T08:19:40.186Z,19.57
2018-06-15T08:21:42.249Z,19.93
2018-06-15T08:23:44.285Z,20.93
2018-06-15T08:25:46.325Z,21.47
2018-06-15T08:27:48.372Z,22.20
2018-06-15T08:29:50.409Z,24.60
2018-06-15T08:31:52.441Z,29.63
2018-06-15T08:33:54.558Z,36.67
2018-06-15T08:35:56.620Z,25.97
2018-06-15T08:37:58.652Z,26.50
2018-06-15T08:40:00.700Z,22.50
2018-06-15T08:42:02.733Z,21.53
2018-06-15T08:44:04.781Z,27.30
2018-06-15T08:46:06.813Z,24.83
2018-06-15T08:48:08.845Z,26.90
2018-06-15T08:50:10.871Z,22.87
2018-06-15T08:52:12.902Z,26.70
2018-06-15T08:54:14.924Z,26.90
2018-06-15T08:56:16.954Z,21.20
2018-06-15T08:58:19.005Z,25.63
2018-06-15T09:00:21.034Z,22.47
2018-06-15T09:02:23.089Z,26.70
2018-06-15T09:04:25.113Z,19.97
2018-06-15T09:06:27.125Z,23.63
2018-06-15T09:08:29.176Z,21.47
2018-06-15T09:10:31.189Z,19.53
2018-06-15T09:12:33.245Z,22.90
2018-06-15T09:14:35.269Z,23.13
2018-06-15T09:16:37.305Z,18.83
2018-06-15T09:18:39.340Z,26.60
2018-06-15T09:20:41.377Z,25.83
2018-06-15T09:22:43.456Z,18.80
2018-06-15T09:24:45.514Z,21.37
2018-06-15T09:26:47.537Z,20.17
2018-06-15T09:28:49.586Z,28.13
2018-06-15T09:30:52.012Z,23.17
2018-06-15T09:32:54.053Z,23.20
2018-06-15T09:34:56.077Z,17.30
2018-06-15T09:36:58.101Z,19.40
2018-06-15T09:39:00.182Z,17.03
2018-06-15T09:41:02.194Z,15.73
2018-06-15T09:43:04.237Z,17.83
2018-06-15T09:45:06.258Z,18.40
2018-06-15T09:47:08.268Z,23.13
2018-06-15T09:49:10.296Z,12.13
2018-06-15T09:51:13.666Z,11.20
2018-06-15T09:53:15.712Z,12.97
2018-06-15T09:55:17.750Z,10.17
2018-06-15T09:57:19.775Z,16.40
2018-06-15T09:59:21.803Z,13.23
2018-06-15T10:01:23.832Z,16.87
2018-06-15T10:03:25.872Z,16.53
2018-06-15T10:05:27.908Z,13.78
2018-06-15T10:07:29.934Z,14.40
2018-06-15T10:09:31.957Z,15.60
2018-06-15T10:11:34.036Z,17.20
2018-06-15T10:13:36.066Z,14.17
2018-06-15T10:15:38.110Z,15.03
2018-06-15T10:17:40.166Z,12.27
2018-06-15T10:19:42.212Z,11.90
2018-06-15T10:21:44.250Z,22.80
2018-06-15T10:23:46.309Z,10.07
2018-06-15T10:25:48.357Z,15.23
2018-06-15T10:27:50.428Z,17.13
2018-06-15T10:29:52.469Z,22.13
2018-06-15T10:31:54.525Z,10.07
2018-06-15T10:33:56.559Z,14.33
2018-06-15T10:35:58.596Z,16.73
2018-06-15T10:38:00.638Z,15.43
2018-06-15T10:40:02.700Z,15.10
2018-06-15T10:42:04.745Z,12.53
2018-06-15T10:44:06.770Z,11.40
2018-06-15T10:46:08.811Z,13.93
2018-06-15T10:48:11.485Z,11.63
2018-06-15T10:50:13.544Z,11.13
2018-06-15T10:52:15.561Z,12.53
2018-06-15T10:54:17.610Z,15.80
2018-06-15T10:56:19.678Z,11.07
2018-06-15T10:58:21.664Z,14.38
2018-06-15T11:00:23.712Z,15.67
2018-06-15T11:02:25.787Z,10.63
2018-06-15T11:04:27.793Z,11.03
2018-06-15T11:06:29.846Z,11.83
2018-06-15T11:08:31.928Z,12.33
2018-06-15T11:10:33.933Z,12.03
2018-06-15T11:12:36.010Z,15.43
2018-06-15T11:14:38.076Z,12.53
2018-06-15T11:16:40.125Z,11.73
2018-06-15T11:18:42.164Z,12.27
2018-06-15T11:20:44.197Z,9.40
2018-06-15T11:22:46.325Z,13.60
2018-06-15T11:24:48.389Z,9.90
2018-06-15T11:26:50.423Z,14.73
2018-06-15T11:28:52.561Z,16.63
2018-06-15T11:30:54.624Z,18.60
2018-06-15T11:32:56.661Z,13.73
2018-06-15T11:34:58.707Z,15.63
2018-06-15T11:37:00.768Z,18.43
2018-06-15T11:39:04.758Z,17.37
2018-06-15T11:41:06.849Z,15.73
2018-06-15T11:43:08.892Z,19.33
2018-06-15T11:45:10.946Z,13.97
2018-06-15T11:47:12.999Z,18.30
2018-06-15T11:49:15.033Z,17.00
2018-06-15T11:51:17.141Z,21.17
2018-06-15T11:53:19.208Z,10.50
2018-06-15T11:55:21.256Z,21.97
2018-06-15T11:57:23.379Z,15.00
2018-06-15T11:59:25.381Z,12.67
2018-06-15T12:01:27.436Z,8.57
2018-06-15T12:03:29.482Z,16.37
2018-06-15T12:05:31.533Z,13.17
2018-06-15T12:07:33.576Z,14.93
2018-06-15T12:09:36.307Z,10.77
2018-06-15T12:11:38.389Z,15.20
2018-06-15T12:13:40.428Z,12.13
2018-06-15T12:15:42.492Z,19.53
2018-06-15T12:17:44.556Z,13.43
2018-06-15T12:19:46.605Z,13.03
2018-06-15T12:21:48.653Z,14.63
2018-06-15T12:23:50.693Z,16.30
2018-06-15T12:25:52.736Z,11.43
2018-06-15T12:27:54.800Z,23.77
2018-06-15T12:29:56.857Z,17.87
2018-06-15T12:31:58.913Z,15.30
2018-06-15T12:34:00.961Z,14.63
2018-06-15T12:36:03.099Z,15.07
2018-06-15T12:38:05.145Z,22.37
2018-06-15T12:40:07.222Z,9.63
2018-06-15T12:42:09.275Z,11.63
2018-06-15T12:44:11.360Z,10.13
2018-06-15T12:46:13.599Z,10.57
2018-06-15T12:48:15.648Z,10.00
2018-06-15T12:50:17.733Z,8.60
2018-06-15T12:52:19.802Z,12.10
2018-06-15T12:54:22.022Z,12.63
2018-06-15T12:56:24.122Z,18.67
2018-06-15T12:58:26.196Z,10.93
2018-06-15T13:00:28.269Z,13.20
2018-06-15T13:02:30.308Z,13.90
2018-06-15T13:04:32.356Z,11.60
2018-06-15T13:06:34.406Z,12.73
2018-06-15T13:08:36.481Z,15.83
2018-06-15T13:10:38.529Z,16.77
2018-06-15T13:12:40.595Z,21.00
2018-06-15T13:14:42.665Z,15.27
2018-06-15T13:16:44.753Z,12.67
2018-06-15T13:18:46.960Z,14.57
2018-06-15T13:20:49.049Z,8.50
2018-06-15T13:22:51.131Z,9.43
2018-06-15T13:24:53.460Z,11.23
2018-06-15T13:26:55.533Z,13.07
2018-06-15T13:28:57.712Z,11.30
2018-06-15T13:30:59.792Z,15.95
2018-06-15T13:33:01.864Z,15.63
2018-06-15T13:35:04.055Z,14.37
2018-06-15T13:37:06.283Z,15.67
2018-06-15T13:39:10.049Z,10.90
2018-06-15T13:41:12.150Z,21.33
2018-06-15T13:43:14.234Z,14.03
2018-06-15T13:45:16.295Z,18.90
2018-06-15T13:47:18.372Z,11.47
2018-06-15T13:49:20.845Z,11.03
2018-06-15T13:51:22.914Z,10.87
2018-06-15T13:53:24.972Z,9.40
2018-06-15T13:55:27.065Z,10.13
2018-06-15T13:57:29.141Z,11.93
2018-06-15T13:59:31.195Z,8.77
2018-06-15T14:01:33.248Z,16.60
2018-06-15T14:03:35.308Z,10.70
2018-06-15T14:05:37.368Z,12.73
2018-06-15T14:07:39.450Z,12.33
2018-06-15T14:09:41.597Z,11.17
2018-06-15T14:11:43.584Z,8.10
2018-06-15T14:13:45.634Z,8.53
2018-06-15T14:15:47.684Z,13.93
2018-06-15T14:17:49.754Z,9.50
2018-06-15T14:19:51.812Z,12.17
2018-06-15T14:21:53.912Z,9.13
2018-06-15T14:23:55.970Z,9.60
2018-06-15T14:25:58.043Z,11.13
2018-06-15T14:28:00.126Z,12.93
2018-06-15T14:30:02.167Z,11.67
2018-06-15T14:32:04.393Z,12.80
2018-06-15T14:34:06.498Z,12.97
2018-06-15T14:36:08.652Z,14.87
2018-06-15T14:38:10.702Z,9.57
2018-06-15T14:40:12.890Z,10.07
2018-06-15T14:42:14.952Z,13.10
2018-06-15T14:44:17.016Z,8.13
2018-06-15T14:46:19.108Z,17.63
2018-06-15T14:48:21.169Z,6.10
2018-06-15T14:50:23.238Z,10.73
2018-06-15T14:52:25.369Z,13.07
2018-06-15T14:54:27.452Z,19.70
2018-06-15T14:56:29.516Z,6.90
2018-06-15T14:58:31.784Z,9.90
2018-06-15T15:00:33.808Z,8.35
2018-06-15T15:02:35.857Z,10.53
2018-06-15T15:04:37.905Z,8.60
2018-06-15T15:06:39.965Z,12.00
2018-06-15T15:08:42.037Z,9.43
2018-06-15T15:10:44.092Z,13.70
2018-06-15T15:12:46.145Z,9.40
2018-06-15T15:14:48.265Z,10.33
2018-06-15T15:16:50.341Z,7.53
2018-06-15T15:18:52.380Z,16.23
2018-06-15T15:20:54.639Z,13.47
2018-06-15T15:22:56.697Z,8.27
2018-06-15T15:24:58.930Z,13.70
2018-06-15T15:27:01.050Z,9.40
2018-06-15T15:29:03.196Z,7.53
2018-06-15T15:31:05.312Z,11.60
2018-06-15T15:33:07.374Z,12.40
2018-06-15T15:35:09.528Z,9.80
2018-06-15T15:37:11.605Z,13.40
2018-06-15T15:39:13.673Z,12.67
2018-06-15T15:41:15.726Z,13.90
2018-06-15T15:43:17.822Z,13.87
2018-06-15T15:45:19.858Z,13.60
2018-06-15T15:47:21.928Z,10.40
2018-06-15T15:49:23.988Z,12.50
2018-06-15T15:51:26.013Z,9.60
2018-06-15T15:53:28.136Z,11.73
2018-06-15T15:55:30.317Z,11.17
2018-06-15T15:57:32.381Z,12.77
2018-06-15T15:59:34.500Z,10.97
2018-06-15T16:01:36.716Z,9.13
2018-06-15T16:03:38.811Z,13.03
2018-06-15T16:05:40.905Z,10.73
2018-06-15T16:07:42.957Z,9.93
2018-06-15T16:09:45.025Z,11.33
2018-06-15T16:11:47.073Z,11.17
2018-06-15T16:13:49.129Z,6.23
2018-06-15T16:15:51.177Z,9.33
2018-06-15T16:17:53.242Z,7.40
2018-06-15T16:19:55.325Z,12.20
2018-06-15T16:21:57.349Z,10.27
2018-06-15T16:23:59.484Z,12.40
2018-06-15T16:26:01.511Z,8.10
2018-06-15T16:28:03.646Z,7.90
2018-06-15T16:30:05.706Z,9.07
2018-06-15T16:32:08.328Z,11.93
2018-06-15T16:34:10.405Z,10.43
2018-06-15T16:36:12.469Z,8.90
2018-06-15T16:38:14.533Z,7.40
2018-06-15T16:40:16.593Z,10.93
2018-06-15T16:42:18.641Z,18.90
2018-06-15T16:44:20.705Z,9.53
2018-06-15T16:46:22.773Z,8.80
2018-06-15T16:48:24.901Z,9.67
2018-06-15T16:50:26.921Z,11.03
2018-06-15T16:52:28.964Z,10.50
2018-06-15T16:54:31.069Z,11.37
2018-06-15T16:56:33.157Z,10.57
2018-06-15T16:58:35.245Z,9.93
2018-06-15T17:00:37.316Z,10.90
2018-06-15T17:02:39.401Z,9.10
2018-06-15T17:04:41.468Z,9.47
2018-06-15T17:06:43.560Z,11.40
2018-06-15T17:08:45.687Z,11.87
2018-06-15T17:10:47.786Z,16.57
2018-06-15T17:12:49.861Z,10.93
2018-06-15T17:14:51.971Z,10.10
2018-06-15T17:16:54.048Z,8.10
2018-06-15T17:18:56.158Z,10.67
2018-06-15T17:20:58.229Z,10.20
2018-06-15T17:23:00.494Z,11.60
2018-06-15T17:25:02.593Z,7.27
2018-06-15T17:27:04.754Z,9.63
2018-06-15T17:29:06.877Z,10.60
2018-06-15T17:31:09.038Z,8.28
2018-06-15T17:33:11.049Z,7.10
2018-06-15T17:35:13.146Z,16.67
2018-06-15T17:37:15.225Z,14.23
2018-06-15T17:39:17.363Z,8.53
2018-06-15T17:41:19.495Z,10.60
2018-06-15T17:43:21.614Z,7.40
2018-06-15T17:45:23.728Z,9.53
2018-06-15T17:47:25.837Z,9.67
2018-06-15T17:49:27.930Z,9.87
2018-06-15T17:51:30.007Z,9.30
2018-06-15T17:53:32.133Z,10.23
2018-06-15T17:55:34.279Z,10.93
2018-06-15T17:57:36.363Z,9.30
2018-06-15T17:59:38.537Z,8.70
2018-06-15T18:01:40.685Z,11.10
2018-06-15T18:03:42.751Z,12.03
2018-06-15T18:05:44.863Z,11.40
2018-06-15T18:07:46.980Z,9.27
2018-06-15T18:09:49.084Z,7.23
2018-06-15T18:11:51.200Z,8.80
2018-06-15T18:13:53.285Z,8.93
2018-06-15T18:15:55.371Z,18.53
2018-06-15T18:17:57.497Z,11.57
2018-06-15T18:19:59.610Z,8.00
2018-06-15T18:22:01.697Z,11.10
2018-06-15T18:24:03.809Z,10.20
2018-06-15T18:26:05.876Z,24.27
2018-06-15T18:28:07.973Z,11.83
2018-06-15T18:30:10.057Z,13.63
2018-06-15T18:32:12.141Z,13.13
2018-06-15T18:34:14.240Z,13.70
2018-06-15T18:36:16.293Z,10.63
2018-06-15T18:38:18.363Z,8.47
2018-06-15T18:40:20.426Z,9.03
2018-06-15T18:42:22.518Z,12.85
2018-06-15T18:44:24.638Z,11.70
2018-06-15T18:46:26.705Z,10.53
2018-06-15T18:48:28.769Z,12.50
2018-06-15T18:50:30.853Z,12.43
2018-06-15T18:52:32.937Z,9.83
2018-06-15T18:54:35.102Z,22.93
2018-06-15T18:56:37.192Z,10.27
2018-06-15T18:58:39.301Z,10.30
2018-06-15T19:00:41.368Z,19.20
2018-06-15T19:02:43.477Z,8.87
2018-06-15T19:04:45.548Z,17.37
2018-06-15T19:06:47.891Z,8.40
2018-06-15T19:08:50.014Z,11.00
2018-06-15T19:10:52.122Z,11.07
2018-06-15T19:12:54.242Z,11.83
2018-06-15T19:14:56.344Z,14.97
2018-06-15T19:16:58.462Z,10.40
2018-06-15T19:19:00.529Z,15.90
2018-06-15T19:21:02.608Z,14.80
2018-06-15T19:23:04.710Z,11.60
2018-06-15T19:25:06.785Z,11.27
2018-06-15T19:27:08.882Z,12.47
2018-06-15T19:29:11.067Z,11.20
2018-06-15T19:31:13.030Z,14.27
2018-06-15T19:33:15.230Z,11.43
2018-06-15T19:35:17.303Z,11.57
2018-06-15T19:37:19.434Z,8.70
2018-06-15T19:39:21.522Z,11.47
2018-06-15T19:41:23.629Z,12.10
2018-06-15T19:43:25.718Z,8.10
2018-06-15T19:45:27.819Z,10.77
2018-06-15T19:47:30.190Z,9.40
2018-06-15T19:49:32.274Z,9.80
2018-06-15T19:51:34.430Z,9.80
2018-06-15T19:53:36.520Z,8.10
2018-06-15T19:55:38.588Z,15.70
2018-06-15T19:57:40.662Z,11.27
2018-06-15T19:59:42.756Z,9.30
2018-06-15T20:01:44.845Z,11.10
2018-06-15T20:03:46.954Z,11.33
2018-06-15T20:05:49.046Z,9.40
2018-06-15T20:15:58.001Z,16.43
2018-06-15T20:18:00.035Z,10.80
2018-06-15T20:20:02.148Z,13.97
2018-06-15T20:22:04.207Z,11.67
2018-06-15T20:24:06.259Z,22.10
2018-06-15T20:26:08.333Z,9.73
2018-06-15T20:28:10.380Z,10.80
2018-06-15T20:30:12.429Z,9.97
2018-06-15T20:32:14.488Z,16.10
2018-06-15T20:34:16.529Z,9.40
2018-06-15T20:36:18.685Z,10.00
2018-06-15T20:38:20.681Z,9.77
2018-06-15T20:40:22.722Z,13.70
2018-06-15T20:42:24.850Z,15.53
2018-06-15T20:44:26.901Z,10.67
2018-06-15T20:46:28.969Z,14.60
2018-06-15T20:48:31.028Z,11.00
2018-06-15T20:50:33.079Z,10.63
2018-06-15T20:52:35.202Z,14.53
2018-06-15T20:54:37.327Z,14.47
2018-06-15T20:56:46.258Z,11.60
2018-06-15T20:58:51.537Z,13.33
2018-06-15T21:00:53.630Z,16.03
2018-06-15T21:02:55.696Z,13.63
2018-06-15T21:04:57.725Z,11.43
2018-06-15T21:06:59.866Z,12.17
2018-06-15T21:09:01.944Z,11.23
2018-06-15T21:11:04.005Z,9.97
2018-06-15T21:13:06.057Z,16.40
2018-06-15T21:15:08.145Z,12.77
2018-06-15T21:17:10.244Z,10.97
2018-06-15T21:19:12.294Z,13.07
2018-06-15T21:21:14.341Z,15.20
2018-06-15T21:23:16.388Z,13.43
2018-06-15T21:25:18.453Z,12.43
2018-06-15T21:27:20.505Z,10.40
2018-06-15T21:29:22.573Z,12.10
2018-06-15T21:31:24.640Z,11.00
2018-06-15T21:33:26.737Z,10.97
2018-06-15T21:35:29.105Z,9.33
2018-06-15T21:37:31.157Z,11.20
2018-06-15T21:39:33.240Z,9.93
2018-06-15T21:41:35.329Z,11.23
2018-06-15T21:43:37.393Z,10.90
2018-06-15T21:45:39.736Z,10.67
2018-06-15T21:47:41.786Z,11.03
2018-06-15T21:49:43.862Z,10.77
2018-06-15T21:51:45.930Z,14.03
2018-06-15T21:53:47.980Z,11.93
2018-06-15T21:55:50.045Z,10.67
2018-06-15T21:57:52.099Z,11.80
2018-06-15T21:59:54.157Z,10.80
2018-06-15T22:01:56.234Z,12.13
2018-06-15T22:03:58.332Z,10.77
2018-06-15T22:06:00.405Z,16.43
2018-06-15T22:08:02.462Z,14.03
2018-06-15T22:10:04.539Z,11.40
2018-06-15T22:12:06.627Z,13.30
2018-06-15T22:14:08.701Z,10.53
2018-06-15T22:16:10.786Z,12.13
2018-06-15T22:18:12.840Z,11.40
2018-06-15T22:20:14.873Z,11.93
2018-06-15T22:22:16.909Z,13.33
2018-06-15T22:24:19.066Z,13.13
2018-06-15T22:26:21.138Z,11.60
2018-06-15T22:28:23.196Z,11.37
2018-06-15T22:30:25.294Z,11.20
2018-06-15T22:32:27.492Z,11.97
2018-06-15T22:34:29.642Z,10.20
2018-06-15T22:36:31.883Z,11.70
2018-06-15T22:38:33.952Z,13.50
2018-06-15T22:40:36.017Z,15.80
2018-06-15T22:42:38.225Z,11.60
2018-06-15T22:44:40.341Z,15.43
2018-06-15T22:46:42.675Z,10.37
2018-06-15T22:48:44.776Z,11.20
2018-06-15T22:50:46.948Z,15.83
2018-06-15T22:52:49.113Z,11.93
2018-06-15T22:54:51.494Z,11.87
2018-06-15T22:56:53.583Z,13.87
2018-06-15T22:58:55.669Z,15.03
2018-06-15T23:00:57.761Z,12.27
2018-06-15T23:02:59.847Z,14.03
2018-06-15T23:05:01.957Z,11.63
2018-06-15T23:07:04.115Z,22.90
2018-06-15T23:09:07.540Z,13.57
2018-06-15T23:11:09.606Z,13.83
2018-06-15T23:13:11.726Z,15.63
2018-06-15T23:15:13.786Z,17.47
2018-06-15T23:17:15.854Z,15.20
2018-06-15T23:19:17.928Z,13.93
2018-06-15T23:21:20.001Z,16.63
2018-06-15T23:23:22.081Z,13.27
2018-06-15T23:25:24.145Z,12.27
2018-06-15T23:27:26.218Z,16.00
2018-06-15T23:29:28.319Z,16.90
2018-06-15T23:31:30.381Z,14.00
2018-06-15T23:33:32.470Z,12.40
2018-06-15T23:35:34.540Z,18.20
2018-06-15T23:37:36.601Z,17.63
2018-06-15T23:39:38.678Z,18.70
2018-06-15T23:41:40.794Z,12.83
2018-06-15T23:43:43.036Z,12.20
2018-06-15T23:45:45.128Z,12.33
2018-06-15T23:47:47.184Z,11.77
2018-06-15T23:49:49.254Z,11.23
2018-06-15T23:51:51.314Z,12.30
2018-06-15T23:53:53.377Z,18.37
2018-06-15T23:55:55.438Z,17.63
2018-06-15T23:57:57.509Z,16.07
2018-06-15T23:59:59.573Z,19.33
